Terminal Aerodrome Forecast
Issued by NWS Central Illinois

Home | Current Version | Previous Version | Text Only | Print | Product List | Glossary On
Versions: 1 2 3 4 5 6 7 8 9 10 11 12 13 14 15 16 17 18 19 20 21 22 23 24 25 26 27 28
000
FTUS43 KILX 270500 CCA
TAFPIA
TAF COR
KPIA 270539Z 2706/2806 VRB03KT 4SM BR OVC018
     FM270800 33007KT 4SM BR OVC018
     FM271400 35008G14KT 6SM BR OVC018
     FM271800 02006KT P6SM BKN015
     FM280200 VRB04KT P6SM BKN015=

USA.gov is the U.S. government's official web portal to all federal, state and local government web resources and services.